sensor_id;sensor_type;location;lat;lon;timestamp;P1;durP1;ratioP1;P2;durP2;ratioP2
13048;SDS011;6591;51.446;5.404;2022-11-15T00:01:43;21.93;;;10.00;;
13048;SDS011;6591;51.446;5.404;2022-11-15T00:04:29;13.70;;;10.07;;
13048;SDS011;6591;51.446;5.404;2022-11-15T00:07:15;10.83;;;8.97;;
13048;SDS011;6591;51.446;5.404;2022-11-15T00:10:20;12.80;;;9.27;;
13048;SDS011;6591;51.446;5.404;2022-11-15T00:13:10;12.80;;;9.50;;
13048;SDS011;6591;51.446;5.404;2022-11-15T00:15:58;10.40;;;8.63;;
13048;SDS011;6591;51.446;5.404;2022-11-15T00:18:45;12.17;;;9.07;;
13048;SDS011;6591;51.446;5.404;2022-11-15T00:21:34;10.70;;;8.83;;
13048;SDS011;6591;51.446;5.404;2022-11-15T00:24:20;10.60;;;8.90;;
13048;SDS011;6591;51.446;5.404;2022-11-15T00:27:06;12.67;;;9.13;;
13048;SDS011;6591;51.446;5.404;2022-11-15T00:29:52;15.63;;;9.47;;
13048;SDS011;6591;51.446;5.404;2022-11-15T00:32:38;12.80;;;9.03;;
13048;SDS011;6591;51.446;5.404;2022-11-15T00:35:24;11.60;;;8.60;;
13048;SDS011;6591;51.446;5.404;2022-11-15T00:38:10;11.83;;;9.70;;
13048;SDS011;6591;51.446;5.404;2022-11-15T00:40:55;9.43;;;8.43;;
13048;SDS011;6591;51.446;5.404;2022-11-15T00:43:40;10.10;;;8.37;;
13048;SDS011;6591;51.446;5.404;2022-11-15T00:46:28;10.80;;;8.23;;
13048;SDS011;6591;51.446;5.404;2022-11-15T00:49:14;11.67;;;9.17;;
13048;SDS011;6591;51.446;5.404;2022-11-15T00:51:59;10.87;;;8.53;;
13048;SDS011;6591;51.446;5.404;2022-11-15T00:54:45;10.53;;;8.40;;
13048;SDS011;6591;51.446;5.404;2022-11-15T00:57:30;9.13;;;8.17;;
13048;SDS011;6591;51.446;5.404;2022-11-15T01:00:16;10.33;;;8.20;;
13048;SDS011;6591;51.446;5.404;2022-11-15T01:03:01;10.53;;;8.23;;
13048;SDS011;6591;51.446;5.404;2022-11-15T01:05:47;10.17;;;8.27;;
13048;SDS011;6591;51.446;5.404;2022-11-15T01:08:33;10.40;;;8.07;;
13048;SDS011;6591;51.446;5.404;2022-11-15T01:11:19;9.97;;;8.47;;
13048;SDS011;6591;51.446;5.404;2022-11-15T01:14:04;10.30;;;8.27;;
13048;SDS011;6591;51.446;5.404;2022-11-15T01:16:50;13.40;;;8.47;;
13048;SDS011;6591;51.446;5.404;2022-11-15T01:19:36;10.13;;;8.23;;
13048;SDS011;6591;51.446;5.404;2022-11-15T01:22:21;9.93;;;8.20;;
13048;SDS011;6591;51.446;5.404;2022-11-15T01:25:07;9.33;;;7.67;;
13048;SDS011;6591;51.446;5.404;2022-11-15T01:27:52;9.67;;;7.87;;
13048;SDS011;6591;51.446;5.404;2022-11-15T01:30:37;9.50;;;7.50;;
13048;SDS011;6591;51.446;5.404;2022-11-15T01:33:24;11.20;;;8.20;;
13048;SDS011;6591;51.446;5.404;2022-11-15T01:36:11;9.00;;;7.67;;
13048;SDS011;6591;51.446;5.404;2022-11-15T01:39:07;11.07;;;8.37;;
13048;SDS011;6591;51.446;5.404;2022-11-15T01:41:53;9.53;;;8.03;;
13048;SDS011;6591;51.446;5.404;2022-11-15T01:44:48;10.27;;;8.17;;
13048;SDS011;6591;51.446;5.404;2022-11-15T01:47:37;9.33;;;7.47;;
13048;SDS011;6591;51.446;5.404;2022-11-15T01:50:29;9.07;;;7.37;;
13048;SDS011;6591;51.446;5.404;2022-11-15T01:53:17;9.07;;;7.93;;
13048;SDS011;6591;51.446;5.404;2022-11-15T01:56:09;9.63;;;8.37;;
13048;SDS011;6591;51.446;5.404;2022-11-15T01:59:03;8.53;;;7.53;;
13048;SDS011;6591;51.446;5.404;2022-11-15T02:01:52;11.23;;;8.20;;
13048;SDS011;6591;51.446;5.404;2022-11-15T02:04:40;8.77;;;7.87;;
13048;SDS011;6591;51.446;5.404;2022-11-15T02:07:31;10.03;;;7.97;;
13048;SDS011;6591;51.446;5.404;2022-11-15T02:10:20;9.93;;;7.97;;
13048;SDS011;6591;51.446;5.404;2022-11-15T02:13:08;9.20;;;7.70;;
13048;SDS011;6591;51.446;5.404;2022-11-15T02:16:17;9.03;;;7.70;;
13048;SDS011;6591;51.446;5.404;2022-11-15T02:30:02;10.30;;;7.20;;
13048;SDS011;6591;51.446;5.404;2022-11-15T02:33:14;8.67;;;7.77;;
13048;SDS011;6591;51.446;5.404;2022-11-15T02:36:13;10.10;;;7.60;;
13048;SDS011;6591;51.446;5.404;2022-11-15T02:42:18;9.93;;;7.63;;
13048;SDS011;6591;51.446;5.404;2022-11-15T02:45:30;9.67;;;7.77;;
13048;SDS011;6591;51.446;5.404;2022-11-15T02:48:23;10.47;;;7.53;;
13048;SDS011;6591;51.446;5.404;2022-11-15T02:51:11;10.17;;;8.00;;
13048;SDS011;6591;51.446;5.404;2022-11-15T02:53:58;8.80;;;7.90;;
13048;SDS011;6591;51.446;5.404;2022-11-15T02:56:44;8.90;;;7.67;;
13048;SDS011;6591;51.446;5.404;2022-11-15T03:08:46;10.50;;;7.43;;
13048;SDS011;6591;51.446;5.404;2022-11-15T03:11:43;9.67;;;7.43;;
13048;SDS011;6591;51.446;5.404;2022-11-15T03:14:56;9.20;;;7.50;;
13048;SDS011;6591;51.446;5.404;2022-11-15T03:18:23;9.97;;;6.80;;
13048;SDS011;6591;51.446;5.404;2022-11-15T03:21:35;8.37;;;7.47;;
13048;SDS011;6591;51.446;5.404;2022-11-15T03:24:25;9.33;;;7.97;;
13048;SDS011;6591;51.446;5.404;2022-11-15T03:27:17;10.03;;;7.80;;
13048;SDS011;6591;51.446;5.404;2022-11-15T03:30:08;8.97;;;7.77;;
13048;SDS011;6591;51.446;5.404;2022-11-15T03:32:58;9.23;;;8.23;;
13048;SDS011;6591;51.446;5.404;2022-11-15T03:35:48;8.77;;;7.83;;
13048;SDS011;6591;51.446;5.404;2022-11-15T03:38:36;10.40;;;8.43;;
13048;SDS011;6591;51.446;5.404;2022-11-15T03:41:30;10.30;;;8.50;;
13048;SDS011;6591;51.446;5.404;2022-11-15T03:47:34;9.87;;;8.33;;
13048;SDS011;6591;51.446;5.404;2022-11-15T03:50:26;11.47;;;8.87;;
13048;SDS011;6591;51.446;5.404;2022-11-15T03:53:14;11.53;;;8.80;;
13048;SDS011;6591;51.446;5.404;2022-11-15T03:55:59;9.87;;;8.53;;
13048;SDS011;6591;51.446;5.404;2022-11-15T03:58:45;10.37;;;8.27;;
13048;SDS011;6591;51.446;5.404;2022-11-15T04:01:30;10.07;;;8.17;;
13048;SDS011;6591;51.446;5.404;2022-11-15T04:04:16;11.87;;;8.50;;
13048;SDS011;6591;51.446;5.404;2022-11-15T04:07:02;10.53;;;8.13;;
13048;SDS011;6591;51.446;5.404;2022-11-15T04:09:48;11.43;;;8.50;;
13048;SDS011;6591;51.446;5.404;2022-11-15T04:12:48;9.77;;;7.90;;
13048;SDS011;6591;51.446;5.404;2022-11-15T04:15:34;12.00;;;9.20;;
13048;SDS011;6591;51.446;5.404;2022-11-15T04:18:20;9.73;;;8.37;;
13048;SDS011;6591;51.446;5.404;2022-11-15T04:21:07;10.93;;;8.33;;
13048;SDS011;6591;51.446;5.404;2022-11-15T04:24:12;11.63;;;7.93;;
13048;SDS011;6591;51.446;5.404;2022-11-15T04:26:57;10.50;;;8.13;;
13048;SDS011;6591;51.446;5.404;2022-11-15T04:29:42;11.50;;;8.20;;
13048;SDS011;6591;51.446;5.404;2022-11-15T04:32:28;11.00;;;8.40;;
13048;SDS011;6591;51.446;5.404;2022-11-15T04:35:14;10.80;;;8.53;;
13048;SDS011;6591;51.446;5.404;2022-11-15T04:38:00;11.50;;;8.80;;
13048;SDS011;6591;51.446;5.404;2022-11-15T04:40:48;11.33;;;8.70;;
13048;SDS011;6591;51.446;5.404;2022-11-15T04:43:34;10.27;;;8.17;;
13048;SDS011;6591;51.446;5.404;2022-11-15T04:46:20;11.27;;;8.27;;
13048;SDS011;6591;51.446;5.404;2022-11-15T04:49:07;11.03;;;9.00;;
13048;SDS011;6591;51.446;5.404;2022-11-15T04:51:53;11.43;;;8.70;;
13048;SDS011;6591;51.446;5.404;2022-11-15T04:54:38;9.47;;;8.23;;
13048;SDS011;6591;51.446;5.404;2022-11-15T04:57:24;10.83;;;8.73;;
13048;SDS011;6591;51.446;5.404;2022-11-15T05:00:11;10.73;;;8.90;;
13048;SDS011;6591;51.446;5.404;2022-11-15T05:02:59;11.40;;;8.17;;
13048;SDS011;6591;51.446;5.404;2022-11-15T05:06:03;10.37;;;8.10;;
13048;SDS011;6591;51.446;5.404;2022-11-15T05:08:50;10.83;;;8.70;;
13048;SDS011;6591;51.446;5.404;2022-11-15T05:11:36;11.00;;;9.20;;
13048;SDS011;6591;51.446;5.404;2022-11-15T05:14:21;12.33;;;8.93;;
13048;SDS011;6591;51.446;5.404;2022-11-15T05:17:07;9.83;;;8.67;;
13048;SDS011;6591;51.446;5.404;2022-11-15T05:19:52;10.47;;;8.97;;
13048;SDS011;6591;51.446;5.404;2022-11-15T05:22:38;9.50;;;8.30;;
13048;SDS011;6591;51.446;5.404;2022-11-15T05:25:24;9.90;;;8.33;;
13048;SDS011;6591;51.446;5.404;2022-11-15T05:28:10;8.30;;;7.47;;
13048;SDS011;6591;51.446;5.404;2022-11-15T05:33:55;9.37;;;8.20;;
13048;SDS011;6591;51.446;5.404;2022-11-15T05:36:44;8.60;;;7.70;;
13048;SDS011;6591;51.446;5.404;2022-11-15T05:39:30;10.97;;;8.03;;
13048;SDS011;6591;51.446;5.404;2022-11-15T05:42:15;8.93;;;7.93;;
13048;SDS011;6591;51.446;5.404;2022-11-15T05:45:02;9.57;;;7.57;;
13048;SDS011;6591;51.446;5.404;2022-11-15T05:47:51;9.43;;;8.10;;
13048;SDS011;6591;51.446;5.404;2022-11-15T05:50:41;8.70;;;7.50;;
13048;SDS011;6591;51.446;5.404;2022-11-15T05:53:31;10.50;;;8.27;;
13048;SDS011;6591;51.446;5.404;2022-11-15T05:56:18;12.63;;;8.70;;
13048;SDS011;6591;51.446;5.404;2022-11-15T05:59:04;10.57;;;8.57;;
13048;SDS011;6591;51.446;5.404;2022-11-15T06:01:52;9.10;;;8.10;;
13048;SDS011;6591;51.446;5.404;2022-11-15T06:04:37;9.17;;;8.17;;
13048;SDS011;6591;51.446;5.404;2022-11-15T06:07:23;8.87;;;7.93;;
13048;SDS011;6591;51.446;5.404;2022-11-15T06:10:08;11.47;;;8.03;;
13048;SDS011;6591;51.446;5.404;2022-11-15T06:12:58;10.53;;;8.77;;
13048;SDS011;6591;51.446;5.404;2022-11-15T06:15:45;9.53;;;8.53;;
13048;SDS011;6591;51.446;5.404;2022-11-15T06:18:33;10.33;;;8.87;;
13048;SDS011;6591;51.446;5.404;2022-11-15T06:21:20;11.10;;;9.23;;
13048;SDS011;6591;51.446;5.404;2022-11-15T06:24:06;12.13;;;9.43;;
13048;SDS011;6591;51.446;5.404;2022-11-15T06:26:52;11.00;;;8.60;;
13048;SDS011;6591;51.446;5.404;2022-11-15T06:29:38;10.50;;;8.50;;
13048;SDS011;6591;51.446;5.404;2022-11-15T06:35:35;8.73;;;7.03;;
13048;SDS011;6591;51.446;5.404;2022-11-15T06:38:21;9.73;;;7.63;;
13048;SDS011;6591;51.446;5.404;2022-11-15T06:41:07;9.87;;;7.37;;
13048;SDS011;6591;51.446;5.404;2022-11-15T06:43:54;9.53;;;7.73;;
13048;SDS011;6591;51.446;5.404;2022-11-15T06:46:41;11.10;;;7.60;;
13048;SDS011;6591;51.446;5.404;2022-11-15T06:49:27;8.73;;;7.17;;
13048;SDS011;6591;51.446;5.404;2022-11-15T06:52:12;8.97;;;7.40;;
13048;SDS011;6591;51.446;5.404;2022-11-15T06:54:58;9.50;;;6.90;;
13048;SDS011;6591;51.446;5.404;2022-11-15T06:57:50;11.07;;;7.70;;
13048;SDS011;6591;51.446;5.404;2022-11-15T07:00:36;8.00;;;6.87;;
13048;SDS011;6591;51.446;5.404;2022-11-15T07:03:22;7.97;;;6.87;;
13048;SDS011;6591;51.446;5.404;2022-11-15T07:06:08;9.00;;;6.77;;
13048;SDS011;6591;51.446;5.404;2022-11-15T07:08:55;9.20;;;6.77;;
13048;SDS011;6591;51.446;5.404;2022-11-15T07:11:40;7.83;;;6.60;;
13048;SDS011;6591;51.446;5.404;2022-11-15T07:14:25;7.87;;;6.67;;
13048;SDS011;6591;51.446;5.404;2022-11-15T07:17:10;8.80;;;6.40;;
13048;SDS011;6591;51.446;5.404;2022-11-15T07:19:56;8.53;;;7.00;;
13048;SDS011;6591;51.446;5.404;2022-11-15T07:22:41;9.10;;;6.80;;
13048;SDS011;6591;51.446;5.404;2022-11-15T07:25:27;10.83;;;7.40;;
13048;SDS011;6591;51.446;5.404;2022-11-15T07:28:13;10.43;;;7.80;;
13048;SDS011;6591;51.446;5.404;2022-11-15T07:31:06;10.73;;;7.93;;
13048;SDS011;6591;51.446;5.404;2022-11-15T07:33:53;9.33;;;7.97;;
13048;SDS011;6591;51.446;5.404;2022-11-15T07:36:39;10.00;;;8.17;;
13048;SDS011;6591;51.446;5.404;2022-11-15T07:39:25;8.97;;;7.87;;
13048;SDS011;6591;51.446;5.404;2022-11-15T07:42:10;9.30;;;7.87;;
13048;SDS011;6591;51.446;5.404;2022-11-15T07:45:15;9.23;;;7.00;;
13048;SDS011;6591;51.446;5.404;2022-11-15T07:48:01;7.90;;;7.10;;
13048;SDS011;6591;51.446;5.404;2022-11-15T07:50:46;10.67;;;7.07;;
13048;SDS011;6591;51.446;5.404;2022-11-15T07:53:32;9.27;;;7.40;;
13048;SDS011;6591;51.446;5.404;2022-11-15T07:56:18;8.07;;;6.10;;
13048;SDS011;6591;51.446;5.404;2022-11-15T07:59:05;8.73;;;6.40;;
13048;SDS011;6591;51.446;5.404;2022-11-15T08:01:50;8.70;;;6.50;;
13048;SDS011;6591;51.446;5.404;2022-11-15T08:04:36;7.27;;;6.30;;
13048;SDS011;6591;51.446;5.404;2022-11-15T08:07:22;6.87;;;5.77;;
13048;SDS011;6591;51.446;5.404;2022-11-15T08:10:07;6.93;;;5.87;;
13048;SDS011;6591;51.446;5.404;2022-11-15T08:13:01;7.00;;;5.83;;
13048;SDS011;6591;51.446;5.404;2022-11-15T08:15:56;7.40;;;5.93;;
13048;SDS011;6591;51.446;5.404;2022-11-15T08:18:44;6.80;;;5.07;;
13048;SDS011;6591;51.446;5.404;2022-11-15T08:21:30;7.13;;;5.10;;
13048;SDS011;6591;51.446;5.404;2022-11-15T08:24:15;6.40;;;5.10;;
13048;SDS011;6591;51.446;5.404;2022-11-15T08:27:01;7.37;;;5.63;;
13048;SDS011;6591;51.446;5.404;2022-11-15T08:29:47;7.77;;;5.47;;
13048;SDS011;6591;51.446;5.404;2022-11-15T08:32:33;7.07;;;4.93;;
13048;SDS011;6591;51.446;5.404;2022-11-15T08:35:19;6.03;;;5.20;;
13048;SDS011;6591;51.446;5.404;2022-11-15T08:38:12;7.60;;;5.03;;
13048;SDS011;6591;51.446;5.404;2022-11-15T08:41:01;5.70;;;4.43;;
13048;SDS011;6591;51.446;5.404;2022-11-15T08:43:49;4.87;;;3.87;;
13048;SDS011;6591;51.446;5.404;2022-11-15T08:46:34;7.37;;;4.63;;
13048;SDS011;6591;51.446;5.404;2022-11-15T08:49:20;5.83;;;4.40;;
13048;SDS011;6591;51.446;5.404;2022-11-15T08:52:05;6.77;;;4.00;;
13048;SDS011;6591;51.446;5.404;2022-11-15T08:54:51;6.47;;;4.33;;
13048;SDS011;6591;51.446;5.404;2022-11-15T08:57:38;5.57;;;4.37;;
13048;SDS011;6591;51.446;5.404;2022-11-15T09:00:23;5.43;;;3.60;;
13048;SDS011;6591;51.446;5.404;2022-11-15T09:03:09;4.93;;;3.47;;
13048;SDS011;6591;51.446;5.404;2022-11-15T09:05:55;5.50;;;3.37;;
13048;SDS011;6591;51.446;5.404;2022-11-15T09:08:43;3.70;;;3.30;;
13048;SDS011;6591;51.446;5.404;2022-11-15T09:11:32;3.97;;;3.10;;
13048;SDS011;6591;51.446;5.404;2022-11-15T09:14:17;3.20;;;2.90;;
13048;SDS011;6591;51.446;5.404;2022-11-15T09:17:03;3.50;;;2.60;;
13048;SDS011;6591;51.446;5.404;2022-11-15T09:19:49;3.90;;;2.60;;
13048;SDS011;6591;51.446;5.404;2022-11-15T09:22:34;6.97;;;2.80;;
13048;SDS011;6591;51.446;5.404;2022-11-15T09:25:21;2.93;;;2.60;;
13048;SDS011;6591;51.446;5.404;2022-11-15T09:28:07;2.90;;;2.20;;
13048;SDS011;6591;51.446;5.404;2022-11-15T09:30:57;2.87;;;2.00;;
13048;SDS011;6591;51.446;5.404;2022-11-15T09:33:47;2.63;;;2.00;;
13048;SDS011;6591;51.446;5.404;2022-11-15T09:36:32;2.67;;;1.87;;
13048;SDS011;6591;51.446;5.404;2022-11-15T09:39:18;3.67;;;2.10;;
13048;SDS011;6591;51.446;5.404;2022-11-15T09:45:29;2.20;;;1.70;;
13048;SDS011;6591;51.446;5.404;2022-11-15T09:48:49;1.80;;;1.50;;
13048;SDS011;6591;51.446;5.404;2022-11-15T09:57:20;1.83;;;1.43;;
13048;SDS011;6591;51.446;5.404;2022-11-15T10:00:02;2.80;;;1.60;;
13048;SDS011;6591;51.446;5.404;2022-11-15T10:05:43;2.40;;;1.20;;
13048;SDS011;6591;51.446;5.404;2022-11-15T10:08:51;2.70;;;1.30;;
13048;SDS011;6591;51.446;5.404;2022-11-15T10:11:34;2.90;;;1.07;;
13048;SDS011;6591;51.446;5.404;2022-11-15T10:14:09;3.73;;;1.10;;
13048;SDS011;6591;51.446;5.404;2022-11-15T10:16:49;2.70;;;1.30;;
13048;SDS011;6591;51.446;5.404;2022-11-15T10:22:20;2.30;;;1.50;;
13048;SDS011;6591;51.446;5.404;2022-11-15T10:25:00;1.10;;;1.00;;
13048;SDS011;6591;51.446;5.404;2022-11-15T10:27:44;2.83;;;1.17;;
13048;SDS011;6591;51.446;5.404;2022-11-15T10:30:35;2.17;;;1.27;;
13048;SDS011;6591;51.446;5.404;2022-11-15T10:33:13;0.73;;;0.73;;
13048;SDS011;6591;51.446;5.404;2022-11-15T10:35:46;1.53;;;0.90;;
13048;SDS011;6591;51.446;5.404;2022-11-15T10:38:13;3.00;;;1.17;;
13048;SDS011;6591;51.446;5.404;2022-11-15T10:40:41;0.93;;;0.70;;
13048;SDS011;6591;51.446;5.404;2022-11-15T10:45:36;3.63;;;1.50;;
13048;SDS011;6591;51.446;5.404;2022-11-15T10:50:41;3.43;;;1.37;;
13048;SDS011;6591;51.446;5.404;2022-11-15T10:53:16;3.53;;;1.30;;
13048;SDS011;6591;51.446;5.404;2022-11-15T10:56:08;2.87;;;1.30;;
13048;SDS011;6591;51.446;5.404;2022-11-15T10:58:42;2.33;;;1.30;;
13048;SDS011;6591;51.446;5.404;2022-11-15T11:01:18;2.10;;;1.20;;
13048;SDS011;6591;51.446;5.404;2022-11-15T11:04:08;1.80;;;1.10;;
13048;SDS011;6591;51.446;5.404;2022-11-15T11:09:34;3.90;;;1.10;;
13048;SDS011;6591;51.446;5.404;2022-11-15T11:12:11;1.40;;;1.00;;
13048;SDS011;6591;51.446;5.404;2022-11-15T11:14:38;2.07;;;1.07;;
13048;SDS011;6591;51.446;5.404;2022-11-15T11:29:07;2.10;;;0.97;;
13048;SDS011;6591;51.446;5.404;2022-11-15T11:32:09;2.50;;;1.50;;
13048;SDS011;6591;51.446;5.404;2022-11-15T11:35:09;2.13;;;1.00;;
13048;SDS011;6591;51.446;5.404;2022-11-15T11:44:15;2.23;;;1.10;;
13048;SDS011;6591;51.446;5.404;2022-11-15T11:47:01;4.03;;;1.13;;
13048;SDS011;6591;51.446;5.404;2022-11-15T11:49:52;2.73;;;1.20;;
13048;SDS011;6591;51.446;5.404;2022-11-15T11:52:31;3.13;;;1.20;;
13048;SDS011;6591;51.446;5.404;2022-11-15T12:03:48;1.70;;;1.03;;
13048;SDS011;6591;51.446;5.404;2022-11-15T12:06:33;1.40;;;0.90;;
13048;SDS011;6591;51.446;5.404;2022-11-15T12:09:17;1.53;;;0.90;;
13048;SDS011;6591;51.446;5.404;2022-11-15T12:12:16;2.00;;;0.90;;
13048;SDS011;6591;51.446;5.404;2022-11-15T12:14:57;1.37;;;0.80;;
13048;SDS011;6591;51.446;5.404;2022-11-15T12:17:35;1.90;;;1.00;;
13048;SDS011;6591;51.446;5.404;2022-11-15T12:20:16;1.73;;;1.03;;
13048;SDS011;6591;51.446;5.404;2022-11-15T12:22:55;3.80;;;1.10;;
13048;SDS011;6591;51.446;5.404;2022-11-15T12:25:39;1.70;;;0.90;;
13048;SDS011;6591;51.446;5.404;2022-11-15T12:28:30;3.10;;;1.13;;
13048;SDS011;6591;51.446;5.404;2022-11-15T12:31:47;1.93;;;0.80;;
13048;SDS011;6591;51.446;5.404;2022-11-15T12:36:49;2.37;;;1.10;;
13048;SDS011;6591;51.446;5.404;2022-11-15T12:39:17;3.47;;;1.10;;
13048;SDS011;6591;51.446;5.404;2022-11-15T13:02:32;3.17;;;1.10;;
13048;SDS011;6591;51.446;5.404;2022-11-15T13:13:00;2.23;;;1.00;;
13048;SDS011;6591;51.446;5.404;2022-11-15T13:15:39;2.73;;;1.07;;
13048;SDS011;6591;51.446;5.404;2022-11-15T13:21:22;2.93;;;1.20;;
13048;SDS011;6591;51.446;5.404;2022-11-15T13:24:10;1.07;;;0.77;;
13048;SDS011;6591;51.446;5.404;2022-11-15T13:26:43;1.87;;;0.90;;
13048;SDS011;6591;51.446;5.404;2022-11-15T13:29:16;2.30;;;0.90;;
13048;SDS011;6591;51.446;5.404;2022-11-15T13:31:46;2.70;;;1.30;;
13048;SDS011;6591;51.446;5.404;2022-11-15T13:34:30;3.10;;;0.90;;
13048;SDS011;6591;51.446;5.404;2022-11-15T13:39:48;2.70;;;0.90;;
13048;SDS011;6591;51.446;5.404;2022-11-15T13:42:16;5.23;;;1.07;;
13048;SDS011;6591;51.446;5.404;2022-11-15T13:45:02;3.40;;;1.00;;
13048;SDS011;6591;51.446;5.404;2022-11-15T13:47:31;1.43;;;0.90;;
13048;SDS011;6591;51.446;5.404;2022-11-15T13:49:58;1.83;;;1.00;;
13048;SDS011;6591;51.446;5.404;2022-11-15T13:52:28;4.97;;;1.17;;
13048;SDS011;6591;51.446;5.404;2022-11-15T13:55:04;3.50;;;1.00;;
13048;SDS011;6591;51.446;5.404;2022-11-15T13:57:42;3.23;;;1.07;;
13048;SDS011;6591;51.446;5.404;2022-11-15T14:03:18;1.77;;;0.80;;
13048;SDS011;6591;51.446;5.404;2022-11-15T14:08:38;2.13;;;1.17;;
13048;SDS011;6591;51.446;5.404;2022-11-15T14:11:14;3.17;;;1.40;;
13048;SDS011;6591;51.446;5.404;2022-11-15T14:16:41;2.20;;;0.87;;
13048;SDS011;6591;51.446;5.404;2022-11-15T14:22:10;1.47;;;0.80;;
13048;SDS011;6591;51.446;5.404;2022-11-15T14:24:43;1.03;;;0.83;;
13048;SDS011;6591;51.446;5.404;2022-11-15T14:27:26;2.03;;;1.07;;
13048;SDS011;6591;51.446;5.404;2022-11-15T14:29:55;1.47;;;1.10;;
13048;SDS011;6591;51.446;5.404;2022-11-15T14:32:23;2.63;;;1.47;;
13048;SDS011;6591;51.446;5.404;2022-11-15T14:34:54;1.50;;;0.97;;
13048;SDS011;6591;51.446;5.404;2022-11-15T14:37:29;2.40;;;1.00;;
13048;SDS011;6591;51.446;5.404;2022-11-15T14:40:02;2.13;;;0.90;;
13048;SDS011;6591;51.446;5.404;2022-11-15T14:42:32;3.07;;;0.93;;
13048;SDS011;6591;51.446;5.404;2022-11-15T14:44:59;3.00;;;1.30;;
13048;SDS011;6591;51.446;5.404;2022-11-15T14:47:26;3.07;;;0.90;;
13048;SDS011;6591;51.446;5.404;2022-11-15T14:49:52;2.93;;;1.30;;
13048;SDS011;6591;51.446;5.404;2022-11-15T14:52:26;2.70;;;1.20;;
13048;SDS011;6591;51.446;5.404;2022-11-15T14:55:00;2.53;;;1.13;;
13048;SDS011;6591;51.446;5.404;2022-11-15T14:57:36;6.13;;;1.50;;
13048;SDS011;6591;51.446;5.404;2022-11-15T15:00:03;1.27;;;0.80;;
13048;SDS011;6591;51.446;5.404;2022-11-15T15:02:38;2.17;;;0.90;;
13048;SDS011;6591;51.446;5.404;2022-11-15T15:05:12;3.93;;;1.20;;
13048;SDS011;6591;51.446;5.404;2022-11-15T15:07:43;2.83;;;1.00;;
13048;SDS011;6591;51.446;5.404;2022-11-15T15:10:11;0.93;;;0.90;;
13048;SDS011;6591;51.446;5.404;2022-11-15T15:13:00;1.70;;;1.20;;
13048;SDS011;6591;51.446;5.404;2022-11-15T15:15:34;1.47;;;1.23;;
13048;SDS011;6591;51.446;5.404;2022-11-15T15:18:03;1.73;;;1.10;;
13048;SDS011;6591;51.446;5.404;2022-11-15T15:20:31;3.53;;;1.30;;
13048;SDS011;6591;51.446;5.404;2022-11-15T15:22:58;1.63;;;1.03;;
13048;SDS011;6591;51.446;5.404;2022-11-15T15:25:30;1.80;;;1.10;;
13048;SDS011;6591;51.446;5.404;2022-11-15T15:28:01;0.97;;;0.93;;
13048;SDS011;6591;51.446;5.404;2022-11-15T15:30:29;2.90;;;1.60;;
13048;SDS011;6591;51.446;5.404;2022-11-15T15:32:56;2.23;;;1.27;;
13048;SDS011;6591;51.446;5.404;2022-11-15T15:35:23;2.90;;;1.47;;
13048;SDS011;6591;51.446;5.404;2022-11-15T15:37:57;1.90;;;1.37;;
13048;SDS011;6591;51.446;5.404;2022-11-15T15:40:25;3.27;;;1.20;;
13048;SDS011;6591;51.446;5.404;2022-11-15T15:42:56;2.83;;;1.07;;
13048;SDS011;6591;51.446;5.404;2022-11-15T15:45:24;1.80;;;1.03;;
13048;SDS011;6591;51.446;5.404;2022-11-15T15:47:53;3.20;;;1.33;;
13048;SDS011;6591;51.446;5.404;2022-11-15T15:50:22;2.53;;;1.33;;
13048;SDS011;6591;51.446;5.404;2022-11-15T15:52:57;1.73;;;1.30;;
13048;SDS011;6591;51.446;5.404;2022-11-15T15:55:26;1.67;;;1.27;;
13048;SDS011;6591;51.446;5.404;2022-11-15T15:57:54;4.00;;;1.50;;
13048;SDS011;6591;51.446;5.404;2022-11-15T16:00:22;2.63;;;1.13;;
13048;SDS011;6591;51.446;5.404;2022-11-15T16:02:51;2.77;;;1.40;;
13048;SDS011;6591;51.446;5.404;2022-11-15T16:05:19;2.13;;;1.53;;
13048;SDS011;6591;51.446;5.404;2022-11-15T16:07:47;2.83;;;1.33;;
13048;SDS011;6591;51.446;5.404;2022-11-15T16:12:53;2.27;;;1.40;;
13048;SDS011;6591;51.446;5.404;2022-11-15T16:15:22;2.17;;;1.40;;
13048;SDS011;6591;51.446;5.404;2022-11-15T16:17:54;2.00;;;1.53;;
13048;SDS011;6591;51.446;5.404;2022-11-15T16:20:33;2.27;;;1.53;;
13048;SDS011;6591;51.446;5.404;2022-11-15T16:23:02;4.90;;;1.47;;
13048;SDS011;6591;51.446;5.404;2022-11-15T16:25:41;2.40;;;1.50;;
13048;SDS011;6591;51.446;5.404;2022-11-15T16:28:20;2.23;;;1.63;;
13048;SDS011;6591;51.446;5.404;2022-11-15T16:31:08;3.53;;;1.90;;
13048;SDS011;6591;51.446;5.404;2022-11-15T16:33:36;1.63;;;1.47;;
13048;SDS011;6591;51.446;5.404;2022-11-15T16:36:05;1.67;;;1.53;;
13048;SDS011;6591;51.446;5.404;2022-11-15T16:38:44;2.30;;;1.43;;
13048;SDS011;6591;51.446;5.404;2022-11-15T16:41:11;2.90;;;1.50;;
13048;SDS011;6591;51.446;5.404;2022-11-15T16:43:37;4.07;;;1.83;;
13048;SDS011;6591;51.446;5.404;2022-11-15T16:46:12;2.63;;;1.80;;
13048;SDS011;6591;51.446;5.404;2022-11-15T16:48:49;3.27;;;1.87;;
13048;SDS011;6591;51.446;5.404;2022-11-15T16:51:17;3.10;;;1.70;;
13048;SDS011;6591;51.446;5.404;2022-11-15T16:53:43;3.53;;;1.80;;
13048;SDS011;6591;51.446;5.404;2022-11-15T16:56:22;2.80;;;1.57;;
13048;SDS011;6591;51.446;5.404;2022-11-15T16:58:53;2.57;;;2.00;;
13048;SDS011;6591;51.446;5.404;2022-11-15T17:01:33;2.30;;;1.80;;
13048;SDS011;6591;51.446;5.404;2022-11-15T17:04:12;2.17;;;1.60;;
13048;SDS011;6591;51.446;5.404;2022-11-15T17:06:39;2.97;;;1.73;;
13048;SDS011;6591;51.446;5.404;2022-11-15T17:09:10;3.70;;;2.20;;
13048;SDS011;6591;51.446;5.404;2022-11-15T17:11:43;2.37;;;2.10;;
13048;SDS011;6591;51.446;5.404;2022-11-15T17:14:10;2.87;;;1.93;;
13048;SDS011;6591;51.446;5.404;2022-11-15T17:16:38;3.37;;;2.10;;
13048;SDS011;6591;51.446;5.404;2022-11-15T17:19:12;3.33;;;2.00;;
13048;SDS011;6591;51.446;5.404;2022-11-15T17:21:45;3.40;;;2.30;;
13048;SDS011;6591;51.446;5.404;2022-11-15T17:24:14;3.50;;;2.40;;
13048;SDS011;6591;51.446;5.404;2022-11-15T17:26:42;3.80;;;2.33;;
13048;SDS011;6591;51.446;5.404;2022-11-15T17:29:09;2.30;;;2.10;;
13048;SDS011;6591;51.446;5.404;2022-11-15T17:31:36;2.47;;;1.93;;
13048;SDS011;6591;51.446;5.404;2022-11-15T17:34:04;4.40;;;2.20;;
13048;SDS011;6591;51.446;5.404;2022-11-15T17:36:32;2.47;;;2.20;;
13048;SDS011;6591;51.446;5.404;2022-11-15T17:39:01;2.53;;;1.90;;
13048;SDS011;6591;51.446;5.404;2022-11-15T17:41:29;3.57;;;2.43;;
13048;SDS011;6591;51.446;5.404;2022-11-15T17:43:56;4.03;;;2.20;;
13048;SDS011;6591;51.446;5.404;2022-11-15T17:46:25;3.80;;;2.30;;
13048;SDS011;6591;51.446;5.404;2022-11-15T17:48:54;2.83;;;2.53;;
13048;SDS011;6591;51.446;5.404;2022-11-15T17:51:22;3.63;;;2.40;;
13048;SDS011;6591;51.446;5.404;2022-11-15T17:53:50;2.53;;;2.20;;
13048;SDS011;6591;51.446;5.404;2022-11-15T17:56:21;3.17;;;2.40;;
13048;SDS011;6591;51.446;5.404;2022-11-15T17:58:54;3.37;;;2.47;;
13048;SDS011;6591;51.446;5.404;2022-11-15T18:01:28;2.77;;;2.40;;
13048;SDS011;6591;51.446;5.404;2022-11-15T18:03:58;3.17;;;2.67;;
13048;SDS011;6591;51.446;5.404;2022-11-15T18:06:29;4.70;;;2.40;;
13048;SDS011;6591;51.446;5.404;2022-11-15T18:09:00;3.33;;;2.43;;
13048;SDS011;6591;51.446;5.404;2022-11-15T18:11:30;4.23;;;2.50;;
13048;SDS011;6591;51.446;5.404;2022-11-15T18:14:01;2.50;;;2.30;;
13048;SDS011;6591;51.446;5.404;2022-11-15T18:16:31;3.17;;;2.43;;
13048;SDS011;6591;51.446;5.404;2022-11-15T18:19:01;3.33;;;2.83;;
13048;SDS011;6591;51.446;5.404;2022-11-15T18:21:36;2.70;;;2.50;;
13048;SDS011;6591;51.446;5.404;2022-11-15T18:24:25;3.10;;;2.80;;
13048;SDS011;6591;51.446;5.404;2022-11-15T18:26:55;3.30;;;2.77;;
13048;SDS011;6591;51.446;5.404;2022-11-15T18:29:24;3.00;;;2.70;;
13048;SDS011;6591;51.446;5.404;2022-11-15T18:31:51;3.73;;;2.70;;
13048;SDS011;6591;51.446;5.404;2022-11-15T18:34:23;2.90;;;2.40;;
13048;SDS011;6591;51.446;5.404;2022-11-15T20:48:25;3.50;;;3.20;;
13048;SDS011;6591;51.446;5.404;2022-11-15T20:50:58;3.80;;;3.40;;
13048;SDS011;6591;51.446;5.404;2022-11-15T20:53:34;3.40;;;3.10;;